地図

経路データ

SID SEASON NUMBER BASIN SUBBASIN NAME ISO_TIME NATURE LAT LON WMO_WIND WMO_PRES WMO_AGENCY TRACK_TYPE DIST2LAND LANDFALL IFLAG USA_AGENCY USA_ATCF_ID USA_LAT USA_LON USA_RECORD USA_STATUS USA_WIND USA_PRES USA_SSHS USA_R34_NE USA_R34_SE USA_R34_SW USA_R34_NW USA_R50_NE USA_R50_SE USA_R50_SW USA_R50_NW USA_R64_NE USA_R64_SE USA_R64_SW USA_R64_NW USA_POCI USA_ROCI USA_RMW USA_EYE TOKYO_LAT TOKYO_LON TOKYO_GRADE TOKYO_WIND TOKYO_PRES TOKYO_R50_DIR TOKYO_R50_LONG TOKYO_R50_SHORT TOKYO_R30_DIR TOKYO_R30_LONG TOKYO_R30_SHORT TOKYO_LAND CMA_LAT CMA_LON CMA_CAT CMA_WIND CMA_PRES HKO_LAT HKO_LON HKO_CAT HKO_WIND HKO_PRES NEWDELHI_LAT NEWDELHI_LON NEWDELHI_GRADE NEWDELHI_WIND NEWDELHI_PRES NEWDELHI_CI NEWDELHI_DP NEWDELHI_POCI REUNION_LAT REUNION_LON REUNION_TYPE REUNION_WIND REUNION_PRES REUNION_TNUM REUNION_CI REUNION_RMW REUNION_R34_NE REUNION_R34_SE REUNION_R34_SW REUNION_R34_NW REUNION_R50_NE REUNION_R50_SE REUNION_R50_SW REUNION_R50_NW REUNION_R64_NE REUNION_R64_SE REUNION_R64_SW REUNION_R64_NW BOM_LAT BOM_LON BOM_TYPE BOM_WIND BOM_PRES BOM_TNUM BOM_CI BOM_RMW BOM_R34_NE BOM_R34_SE BOM_R34_SW BOM_R34_NW BOM_R50_NE BOM_R50_SE BOM_R50_SW BOM_R50_NW BOM_R64_NE BOM_R64_SE BOM_R64_SW BOM_R64_NW BOM_ROCI BOM_POCI BOM_EYE BOM_POS_METHOD BOM_PRES_METHOD NADI_LAT NADI_LON NADI_CAT NADI_WIND NADI_PRES WELLINGTON_LAT WELLINGTON_LON WELLINGTON_WIND WELLINGTON_PRES DS824_LAT DS824_LON DS824_STAGE DS824_WIND DS824_PRES TD9636_LAT TD9636_LON TD9636_STAGE TD9636_WIND TD9636_PRES TD9635_LAT TD9635_LON TD9635_WIND TD9635_PRES TD9635_ROCI NEUMANN_LAT NEUMANN_LON NEUMANN_CLASS NEUMANN_WIND NEUMANN_PRES MLC_LAT MLC_LON MLC_CLASS MLC_WIND MLC_PRES USA_GUST BOM_GUST BOM_GUST_PER REUNION_GUST REUNION_GUST_PER USA_SEAHGT USA_SEARAD_NE USA_SEARAD_SE USA_SEARAD_SW USA_SEARAD_NW STORM_SPEED STORM_DIR
1944273N19089 1944 62 NI BB NOT_NAMED 1944-09-29 00:00:00 TS 19.4000 89.0000 main 246 234 _________O____ -1 19.4000 89.0000 TC 30 3 298
1944273N19089 1944 62 NI BB NOT_NAMED 1944-09-29 03:00:00 TS 19.4667 88.8667 main 234 215 _________PO___ -1 19.5000 88.8000 TC 30 19.4000 89.0000 1 4 298
1944273N19089 1944 62 NI BB NOT_NAMED 1944-09-29 06:00:00 TS 19.5633 88.6709 main 215 192 _________OP___ -1 19.6000 88.6000 TC 30 19.5083 88.7771 1 4 298
1944273N19089 1944 62 NI BB NOT_NAMED 1944-09-29 09:00:00 TS 19.6628 88.4700 main 192 168 _________PP___ -1 19.7000 88.4000 TC 30 19.6132 88.5633 1 4 298
1944273N19089 1944 62 NI BB NOT_NAMED 1944-09-29 12:00:00 TS 19.7557 88.2839 main 168 152 _________OP___ -1 19.8000 88.2000 TC 30 19.7115 88.3677 1 4 298
1944273N19089 1944 62 NI BB NOT_NAMED 1944-09-29 15:00:00 TS 19.8500 88.1000 main 152 129 _________PO___ -1 19.9000 88.0000 TC 30 19.8000 88.2000 1 4 299
1944273N19089 1944 62 NI BB NOT_NAMED 1944-09-29 18:00:00 TS 19.9394 87.9301 main 129 114 _________OP___ -1 20.0000 87.8000 TC 30 19.8789 88.0602 1 3 300
1944273N19089 1944 62 NI BB NOT_NAMED 1944-09-29 21:00:00 TS 20.0192 87.7817 main 114 91 _________PP___ -1 20.0772 87.6522 TC 30 19.9612 87.9112 1 4 298
1944273N19089 1944 62 NI BB NOT_NAMED 1944-09-30 00:00:00 TS 20.1315 87.5534 main 91 45 _________OP___ -1 20.2000 87.4000 TC 30 20.0629 87.7067 1 7 297
1944273N19089 1944 62 NI BB NOT_NAMED 1944-09-30 03:00:00 TS 20.3176 87.1551 main 45 0 _________PO___ -1 20.4351 86.9102 TC 30 20.2000 87.4000 1 10 295
1944273N19089 1944 62 NI BB NOT_NAMED 1944-09-30 06:00:00 TS 20.5449 86.6146 main 0 0 _________OP___ -1 20.7000 86.3000 TC 30 20.3899 86.9293 1 11 293
1944273N19089 1944 62 NI BB NOT_NAMED 1944-09-30 09:00:00 TS 20.7568 86.0277 main 0 0 _________PP___ -1 20.8999 85.6997 TC 30 20.6136 86.3557 1 12 291
1944273N19089 1944 62 NI BB NOT_NAMED 1944-09-30 12:00:00 TS 20.9777 85.4146 main 0 0 _________OP___ -1 21.1000 85.1000 TC 30 20.8554 85.7291 1 12 293
1944273N19089 1944 62 NI BB NOT_NAMED 1944-09-30 15:00:00 TS 21.2249 84.8212 main 0 0 _________PO___ -1 21.3497 84.5424 TC 30 21.1000 85.1000 1 12 295
1944273N19089 1944 62 NI BB NOT_NAMED 1944-09-30 18:00:00 TS 21.4662 84.2733 main 0 0 _________OP___ -1 21.6000 84.0000 TC 30 21.3324 84.5465 1 11 294
1944273N19089 1944 62 NI BB NOT_NAMED 1944-09-30 21:00:00 TS 21.6856 83.7247 main 0 0 _________PP___ -1 21.8073 83.4498 TC 30 21.5640 83.9996 1 11 293
1944273N19089 1944 62 NI BB NOT_NAMED 1944-10-01 00:00:00 TS 21.8943 83.1764 main 0 0 _________OP___ -1 22.0000 82.9000 TC 30 21.7886 83.4528 1 11 292
1944273N19089 1944 62 NI BB NOT_NAMED 1944-10-01 03:00:00 TS 22.1036 82.6287 main 0 0 _________PO___ -1 22.2072 82.3574 TC 30 22.0000 82.9000 1 11 291
1944273N19089 1944 62 NI BB NOT_NAMED 1944-10-01 06:00:00 TS 22.2966 82.0598 main 0 0 _________OP___ -1 22.4000 81.8000 TC 30 22.1932 82.3196 1 11 289
1944273N19089 1944 62 NI BB NOT_NAMED 1944-10-01 09:00:00 TS 22.4649 81.4634 main 0 0 _________PP___ -1 22.5575 81.1924 TC 30 22.3723 81.7345 1 11 287
1944273N19089 1944 62 NI BB NOT_NAMED 1944-10-01 12:00:00 TS 22.6201 80.8786 main 0 0 _________OP___ -1 22.7000 80.6000 TC 30 22.5402 81.1572 1 11 287
1944273N19089 1944 62 NI BB NOT_NAMED 1944-10-01 15:00:00 TS 22.7748 80.3424 main 0 0 _________PO___ -1 22.8497 80.0848 TC 30 22.7000 80.6000 1 10 288
1944273N19089 1944 62 NI BB NOT_NAMED 1944-10-01 18:00:00 TS 22.9170 79.8697 main 0 0 _________OP___ -1 23.0000 79.6000 TC 30 22.8547 80.0720 1 9 288
1944273N19089 1944 62 NI BB NOT_NAMED 1944-10-01 21:00:00 TS 23.0636 79.3831 main 0 0 _________PP___ -1 23.1504 79.1052 TC 30 23.0058 79.5683 1 9 288
1944273N19089 1944 62 NI BB NOT_NAMED 1944-10-02 00:00:00 TS 23.2026 78.9203 main 0 0 _________OP___ -1 23.3000 78.6000 TC 30 23.1539 79.0804 1 8 288
1944273N19089 1944 62 NI BB NOT_NAMED 1944-10-02 03:00:00 NR 23.3000 78.6000 main 0 __________O___ -1 TC 23.3000 78.6000 1 6 288

IBTrACS Databaseについて

本データベースは、米国NOAAが公開する1842年以降の世界の熱帯低気圧のベストトラックデータアーカイブInternational Best Track Archive for Climate Stewardship (IBTrACS)を、ウェブで閲覧しやすい形式に変換したものです。

最終更新日:2021-10-27